Four Lakes, WA (99014)

8:42 PM PST on February 12, 2016 (GMT -0800)
Craig Rd / White Rd | | Change Station
CLOSE
Current Station
Personal Weather Station
Location: Medical Lake, WA
Elevation: 2405 ft
Nearby Weather Stations

Elev 2405 ft 47.58 °N, 117.62 °W | Updated 11 seconds ago

Rain
Rain
42.1 °F
Feels Like 36 °F
N
11.4
Wind Variable Wind from SSE
Gusts 12.3 mph

Today
High -- | Low -- °F
--% Chance of Precip.
Yesterday
High -- | Low -- °F
Precip. -- in
Pressure 30.13 in
Visibility 3.0 miles
Clouds Few 600 ft
Few 1700 ft
Mostly Cloudy 3800 ft
Windchill 36 °F
Dew Point 42 °F
Humidity 98%
Rainfall 0.09 in
Snow Depth Not available.
7:01 AM 5:08 PM
Waxing Crescent, 27% visible
METAR KGEG 130353Z 20006KT 3SM -RA BR FEW006 FEW017 BKN038 06/05 A3009 RMK AO2 SFC VIS 6 SLP202 P0006 T00560050
Pressure 30.13 in
Visibility 3.0 miles
Clouds Few 600 ft
Few 1700 ft
Mostly Cloudy 3800 ft
Windchill 36 °F
Dew Point 42 °F
Humidity 98%
Rainfall 0.09 in
Snow Depth Not available.
7:01 AM 5:08 PM
Waxing Crescent, 27% visible
METAR KGEG 130353Z 20006KT 3SM -RA BR FEW006 FEW017 BKN038 06/05 A3009 RMK AO2 SFC VIS 6 SLP202 P0006 T00560050

10-Day Weather Forecast

Almanac

Astronomy

Feb. 12, 2016 Rise Set
Actual Time
Civil Twilight
Nautical Twilight
Astronomical Twilight
Moon
Length of Visible Light
Length of Day
Tomorrow will be .
, % of the Moon is Illuminated

Today's Extremes

State Highs State Lows

Community

WunderPhotos

Upload Photos

1,892,501 photos uploaded!

WunderBlog® & News

Nearby

Air Quality

  Air Quality AQ Index Pollutant
Not available.

Snow Depth

Station Depth Elevation

Earthquake Activity

City Distance Mag. Time & Date
Minimum magnitude displayed is 2.5.

Coastal Water Temperatures

Place Temperature

Stations

Nearby Weather Stations

Station Location Temp. Windchill Dew Point Humidity Wind Precip. Elev Updated Type
                   

Watches & Warnings

There are currently no watches in effect.